sensor_id;sensor_type;location;lat;lon;timestamp;P1;durP1;ratioP1;P2;durP2;ratioP2
37843;SDS011;63793;57.632;18.292;2023-04-29T00:00:44;4.35;;;2.88;;
37843;SDS011;63793;57.632;18.292;2023-04-29T00:03:11;4.70;;;3.33;;
37843;SDS011;63793;57.632;18.292;2023-04-29T00:05:38;3.90;;;2.60;;
37843;SDS011;63793;57.632;18.292;2023-04-29T00:08:05;8.68;;;3.53;;
37843;SDS011;63793;57.632;18.292;2023-04-29T00:10:33;5.97;;;3.40;;
37843;SDS011;63793;57.632;18.292;2023-04-29T00:13:00;8.15;;;3.63;;
37843;SDS011;63793;57.632;18.292;2023-04-29T00:15:27;5.55;;;3.00;;
37843;SDS011;63793;57.632;18.292;2023-04-29T00:17:54;9.52;;;3.65;;
37843;SDS011;63793;57.632;18.292;2023-04-29T00:20:21;7.60;;;3.42;;
37843;SDS011;63793;57.632;18.292;2023-04-29T00:22:48;7.03;;;3.55;;
37843;SDS011;63793;57.632;18.292;2023-04-29T00:25:15;10.15;;;3.30;;
37843;SDS011;63793;57.632;18.292;2023-04-29T00:27:42;5.03;;;3.20;;
37843;SDS011;63793;57.632;18.292;2023-04-29T00:30:09;6.40;;;3.05;;
37843;SDS011;63793;57.632;18.292;2023-04-29T00:32:36;6.32;;;2.45;;
37843;SDS011;63793;57.632;18.292;2023-04-29T00:35:03;6.03;;;2.42;;
37843;SDS011;63793;57.632;18.292;2023-04-29T00:37:30;4.30;;;2.63;;
37843;SDS011;63793;57.632;18.292;2023-04-29T00:39:58;4.78;;;2.17;;
37843;SDS011;63793;57.632;18.292;2023-04-29T00:42:25;7.45;;;2.13;;
37843;SDS011;63793;57.632;18.292;2023-04-29T00:44:53;5.75;;;2.97;;
37843;SDS011;63793;57.632;18.292;2023-04-29T00:47:21;5.45;;;2.10;;
37843;SDS011;63793;57.632;18.292;2023-04-29T00:49:48;5.80;;;2.17;;
37843;SDS011;63793;57.632;18.292;2023-04-29T00:52:16;6.85;;;2.60;;
37843;SDS011;63793;57.632;18.292;2023-04-29T00:54:44;8.80;;;2.65;;
37843;SDS011;63793;57.632;18.292;2023-04-29T00:57:11;2.88;;;1.95;;
37843;SDS011;63793;57.632;18.292;2023-04-29T00:59:38;4.10;;;1.92;;
37843;SDS011;63793;57.632;18.292;2023-04-29T01:02:06;9.48;;;2.95;;
37843;SDS011;63793;57.632;18.292;2023-04-29T01:04:33;5.20;;;2.10;;
37843;SDS011;63793;57.632;18.292;2023-04-29T01:07:03;9.50;;;3.00;;
37843;SDS011;63793;57.632;18.292;2023-04-29T01:12:36;8.13;;;3.65;;
37843;SDS011;63793;57.632;18.292;2023-04-29T01:20:31;4.03;;;2.92;;
37843;SDS011;63793;57.632;18.292;2023-04-29T01:22:59;5.90;;;2.75;;
37843;SDS011;63793;57.632;18.292;2023-04-29T01:25:27;6.25;;;2.78;;
37843;SDS011;63793;57.632;18.292;2023-04-29T01:28:39;3.60;;;2.22;;
37843;SDS011;63793;57.632;18.292;2023-04-29T01:31:19;3.15;;;2.20;;
37843;SDS011;63793;57.632;18.292;2023-04-29T01:34:09;3.47;;;1.67;;
37843;SDS011;63793;57.632;18.292;2023-04-29T01:36:52;3.47;;;2.10;;
37843;SDS011;63793;57.632;18.292;2023-04-29T01:42:35;6.90;;;2.38;;
37843;SDS011;63793;57.632;18.292;2023-04-29T01:45:13;6.78;;;2.33;;
37843;SDS011;63793;57.632;18.292;2023-04-29T01:47:42;6.50;;;3.17;;
37843;SDS011;63793;57.632;18.292;2023-04-29T01:50:12;5.00;;;3.17;;
37843;SDS011;63793;57.632;18.292;2023-04-29T01:52:39;8.65;;;3.00;;
37843;SDS011;63793;57.632;18.292;2023-04-29T01:55:07;3.40;;;3.10;;
37843;SDS011;63793;57.632;18.292;2023-04-29T01:57:46;12.90;;;3.55;;
37843;SDS011;63793;57.632;18.292;2023-04-29T02:00:25;5.88;;;2.97;;
37843;SDS011;63793;57.632;18.292;2023-04-29T02:02:53;6.78;;;3.22;;
37843;SDS011;63793;57.632;18.292;2023-04-29T02:05:28;5.47;;;2.42;;
37843;SDS011;63793;57.632;18.292;2023-04-29T02:08:00;5.57;;;3.75;;
37843;SDS011;63793;57.632;18.292;2023-04-29T02:10:28;6.15;;;2.58;;
37843;SDS011;63793;57.632;18.292;2023-04-29T02:15:37;8.18;;;3.50;;
37843;SDS011;63793;57.632;18.292;2023-04-29T02:18:04;9.23;;;3.45;;
37843;SDS011;63793;57.632;18.292;2023-04-29T02:20:31;3.95;;;2.72;;
37843;SDS011;63793;57.632;18.292;2023-04-29T02:22:58;6.85;;;3.45;;
37843;SDS011;63793;57.632;18.292;2023-04-29T02:25:25;5.03;;;2.78;;
37843;SDS011;63793;57.632;18.292;2023-04-29T02:27:52;9.65;;;2.95;;
37843;SDS011;63793;57.632;18.292;2023-04-29T02:30:19;6.68;;;3.30;;
37843;SDS011;63793;57.632;18.292;2023-04-29T02:32:46;6.82;;;3.22;;
37843;SDS011;63793;57.632;18.292;2023-04-29T02:35:13;10.95;;;3.90;;
37843;SDS011;63793;57.632;18.292;2023-04-29T02:37:40;9.38;;;3.85;;
37843;SDS011;63793;57.632;18.292;2023-04-29T02:40:07;6.22;;;3.10;;
37843;SDS011;63793;57.632;18.292;2023-04-29T02:42:34;11.57;;;5.15;;
37843;SDS011;63793;57.632;18.292;2023-04-29T02:45:01;8.27;;;2.80;;
37843;SDS011;63793;57.632;18.292;2023-04-29T02:47:29;6.38;;;2.80;;
37843;SDS011;63793;57.632;18.292;2023-04-29T02:49:56;4.50;;;2.50;;
37843;SDS011;63793;57.632;18.292;2023-04-29T02:52:22;4.82;;;2.72;;
37843;SDS011;63793;57.632;18.292;2023-04-29T02:54:49;4.68;;;3.05;;
37843;SDS011;63793;57.632;18.292;2023-04-29T02:57:16;6.68;;;3.70;;
37843;SDS011;63793;57.632;18.292;2023-04-29T02:59:43;7.90;;;3.35;;
37843;SDS011;63793;57.632;18.292;2023-04-29T03:02:10;8.10;;;4.18;;
37843;SDS011;63793;57.632;18.292;2023-04-29T03:04:38;8.02;;;3.55;;
37843;SDS011;63793;57.632;18.292;2023-04-29T03:07:05;5.03;;;2.72;;
37843;SDS011;63793;57.632;18.292;2023-04-29T03:09:33;13.65;;;4.15;;
37843;SDS011;63793;57.632;18.292;2023-04-29T03:12:00;7.22;;;4.30;;
37843;SDS011;63793;57.632;18.292;2023-04-29T03:14:28;6.50;;;3.85;;
37843;SDS011;63793;57.632;18.292;2023-04-29T03:16:57;9.75;;;3.95;;
37843;SDS011;63793;57.632;18.292;2023-04-29T03:19:24;6.55;;;2.92;;
37843;SDS011;63793;57.632;18.292;2023-04-29T03:21:51;5.03;;;3.05;;
37843;SDS011;63793;57.632;18.292;2023-04-29T03:24:20;8.32;;;3.88;;
37843;SDS011;63793;57.632;18.292;2023-04-29T03:26:47;7.65;;;3.53;;
37843;SDS011;63793;57.632;18.292;2023-04-29T03:29:14;12.40;;;4.15;;
37843;SDS011;63793;57.632;18.292;2023-04-29T03:31:41;4.72;;;3.38;;
37843;SDS011;63793;57.632;18.292;2023-04-29T03:34:08;6.38;;;3.17;;
37843;SDS011;63793;57.632;18.292;2023-04-29T03:36:39;8.73;;;3.83;;
37843;SDS011;63793;57.632;18.292;2023-04-29T03:39:06;4.40;;;3.38;;
37843;SDS011;63793;57.632;18.292;2023-04-29T03:41:34;5.97;;;3.53;;
37843;SDS011;63793;57.632;18.292;2023-04-29T03:44:01;7.47;;;3.58;;
37843;SDS011;63793;57.632;18.292;2023-04-29T03:46:28;4.90;;;3.33;;
37843;SDS011;63793;57.632;18.292;2023-04-29T03:48:55;7.55;;;3.58;;
37843;SDS011;63793;57.632;18.292;2023-04-29T03:51:23;9.30;;;3.17;;
37843;SDS011;63793;57.632;18.292;2023-04-29T03:53:55;6.20;;;4.07;;
37843;SDS011;63793;57.632;18.292;2023-04-29T03:56:23;5.95;;;3.83;;
37843;SDS011;63793;57.632;18.292;2023-04-29T03:58:51;6.28;;;3.38;;
37843;SDS011;63793;57.632;18.292;2023-04-29T04:01:20;4.82;;;3.55;;
37843;SDS011;63793;57.632;18.292;2023-04-29T04:03:47;12.32;;;3.80;;
37843;SDS011;63793;57.632;18.292;2023-04-29T04:06:15;7.95;;;4.13;;
37843;SDS011;63793;57.632;18.292;2023-04-29T04:08:42;8.27;;;4.82;;
37843;SDS011;63793;57.632;18.292;2023-04-29T04:11:16;8.70;;;3.42;;
37843;SDS011;63793;57.632;18.292;2023-04-29T04:13:47;11.45;;;3.85;;
37843;SDS011;63793;57.632;18.292;2023-04-29T04:16:15;7.28;;;3.15;;
37843;SDS011;63793;57.632;18.292;2023-04-29T04:18:42;7.65;;;4.50;;
37843;SDS011;63793;57.632;18.292;2023-04-29T04:21:09;5.38;;;4.75;;
37843;SDS011;63793;57.632;18.292;2023-04-29T04:23:40;7.78;;;4.55;;
37843;SDS011;63793;57.632;18.292;2023-04-29T04:26:10;5.38;;;3.42;;
37843;SDS011;63793;57.632;18.292;2023-04-29T04:28:59;8.45;;;3.50;;
37843;SDS011;63793;57.632;18.292;2023-04-29T04:31:32;4.50;;;2.53;;
37843;SDS011;63793;57.632;18.292;2023-04-29T04:33:59;4.90;;;2.85;;
37843;SDS011;63793;57.632;18.292;2023-04-29T04:36:30;7.43;;;3.88;;
37843;SDS011;63793;57.632;18.292;2023-04-29T04:38:58;3.78;;;2.58;;
37843;SDS011;63793;57.632;18.292;2023-04-29T04:41:24;5.60;;;2.90;;
37843;SDS011;63793;57.632;18.292;2023-04-29T04:43:52;6.55;;;2.47;;
37843;SDS011;63793;57.632;18.292;2023-04-29T04:46:28;10.13;;;2.95;;
37843;SDS011;63793;57.632;18.292;2023-04-29T04:49:02;6.07;;;2.70;;
37843;SDS011;63793;57.632;18.292;2023-04-29T04:51:31;3.80;;;2.33;;
37843;SDS011;63793;57.632;18.292;2023-04-29T04:53:58;5.57;;;2.47;;
37843;SDS011;63793;57.632;18.292;2023-04-29T04:56:27;3.50;;;2.10;;
37843;SDS011;63793;57.632;18.292;2023-04-29T04:58:54;9.77;;;2.97;;
37843;SDS011;63793;57.632;18.292;2023-04-29T05:01:21;11.70;;;2.72;;
37843;SDS011;63793;57.632;18.292;2023-04-29T05:03:48;3.22;;;2.72;;
37843;SDS011;63793;57.632;18.292;2023-04-29T05:06:15;6.78;;;2.25;;
37843;SDS011;63793;57.632;18.292;2023-04-29T05:08:45;7.43;;;3.10;;
37843;SDS011;63793;57.632;18.292;2023-04-29T05:11:20;2.55;;;2.00;;
37843;SDS011;63793;57.632;18.292;2023-04-29T05:14:03;2.80;;;2.50;;
37843;SDS011;63793;57.632;18.292;2023-04-29T05:16:30;5.47;;;2.40;;
37843;SDS011;63793;57.632;18.292;2023-04-29T05:18:57;2.55;;;1.90;;
37843;SDS011;63793;57.632;18.292;2023-04-29T05:21:29;4.65;;;2.72;;
37843;SDS011;63793;57.632;18.292;2023-04-29T05:23:57;4.65;;;3.17;;
37843;SDS011;63793;57.632;18.292;2023-04-29T05:26:25;5.15;;;2.90;;
37843;SDS011;63793;57.632;18.292;2023-04-29T05:28:55;5.20;;;1.88;;
37843;SDS011;63793;57.632;18.292;2023-04-29T05:31:22;8.85;;;2.90;;
37843;SDS011;63793;57.632;18.292;2023-04-29T05:33:49;3.90;;;2.22;;
37843;SDS011;63793;57.632;18.292;2023-04-29T05:36:16;3.10;;;2.72;;
37843;SDS011;63793;57.632;18.292;2023-04-29T05:38:43;8.20;;;3.08;;
37843;SDS011;63793;57.632;18.292;2023-04-29T05:41:10;3.65;;;1.85;;
37843;SDS011;63793;57.632;18.292;2023-04-29T05:43:44;5.63;;;2.60;;
37843;SDS011;63793;57.632;18.292;2023-04-29T05:46:12;4.75;;;2.28;;
37843;SDS011;63793;57.632;18.292;2023-04-29T05:48:39;5.05;;;2.08;;
37843;SDS011;63793;57.632;18.292;2023-04-29T05:51:08;5.03;;;2.13;;
37843;SDS011;63793;57.632;18.292;2023-04-29T05:53:35;3.78;;;1.80;;
37843;SDS011;63793;57.632;18.292;2023-04-29T05:56:03;3.47;;;2.20;;
37843;SDS011;63793;57.632;18.292;2023-04-29T05:58:34;4.40;;;2.08;;
37843;SDS011;63793;57.632;18.292;2023-04-29T06:01:01;4.35;;;1.90;;
37843;SDS011;63793;57.632;18.292;2023-04-29T06:03:29;4.07;;;2.33;;
37843;SDS011;63793;57.632;18.292;2023-04-29T06:06:15;4.88;;;2.72;;
37843;SDS011;63793;57.632;18.292;2023-04-29T06:08:59;4.97;;;1.75;;
37843;SDS011;63793;57.632;18.292;2023-04-29T06:11:28;2.33;;;1.98;;
37843;SDS011;63793;57.632;18.292;2023-04-29T06:13:55;3.70;;;1.85;;
37843;SDS011;63793;57.632;18.292;2023-04-29T06:16:22;4.75;;;1.77;;
37843;SDS011;63793;57.632;18.292;2023-04-29T06:18:49;3.72;;;2.22;;
37843;SDS011;63793;57.632;18.292;2023-04-29T06:21:17;4.97;;;2.35;;
37843;SDS011;63793;57.632;18.292;2023-04-29T06:23:44;3.78;;;1.85;;
37843;SDS011;63793;57.632;18.292;2023-04-29T06:26:15;1.75;;;1.33;;
37843;SDS011;63793;57.632;18.292;2023-04-29T06:28:43;4.72;;;2.15;;
37843;SDS011;63793;57.632;18.292;2023-04-29T06:31:10;5.25;;;1.67;;
37843;SDS011;63793;57.632;18.292;2023-04-29T06:33:38;4.20;;;1.20;;
37843;SDS011;63793;57.632;18.292;2023-04-29T06:36:05;5.47;;;1.40;;
37843;SDS011;63793;57.632;18.292;2023-04-29T06:38:58;5.78;;;1.30;;
37843;SDS011;63793;57.632;18.292;2023-04-29T06:41:25;3.05;;;1.30;;
37843;SDS011;63793;57.632;18.292;2023-04-29T06:44:21;2.78;;;1.40;;
37843;SDS011;63793;57.632;18.292;2023-04-29T06:47:19;2.53;;;1.40;;
37843;SDS011;63793;57.632;18.292;2023-04-29T06:49:53;3.15;;;1.42;;
37843;SDS011;63793;57.632;18.292;2023-04-29T06:52:20;3.97;;;1.30;;
37843;SDS011;63793;57.632;18.292;2023-04-29T06:54:47;3.80;;;1.48;;
37843;SDS011;63793;57.632;18.292;2023-04-29T06:57:16;3.17;;;1.90;;
37843;SDS011;63793;57.632;18.292;2023-04-29T06:59:44;2.50;;;1.42;;
37843;SDS011;63793;57.632;18.292;2023-04-29T07:02:11;2.75;;;1.55;;
37843;SDS011;63793;57.632;18.292;2023-04-29T07:04:38;2.75;;;1.70;;
37843;SDS011;63793;57.632;18.292;2023-04-29T07:07:06;6.72;;;1.73;;
37843;SDS011;63793;57.632;18.292;2023-04-29T07:09:33;3.28;;;1.98;;
37843;SDS011;63793;57.632;18.292;2023-04-29T07:12:00;2.13;;;1.35;;
37843;SDS011;63793;57.632;18.292;2023-04-29T07:14:27;4.00;;;1.38;;
37843;SDS011;63793;57.632;18.292;2023-04-29T07:16:54;2.92;;;1.35;;
37843;SDS011;63793;57.632;18.292;2023-04-29T07:19:22;2.78;;;1.00;;
37843;SDS011;63793;57.632;18.292;2023-04-29T07:21:48;1.67;;;1.10;;
37843;SDS011;63793;57.632;18.292;2023-04-29T07:24:15;2.45;;;1.05;;
37843;SDS011;63793;57.632;18.292;2023-04-29T07:26:45;1.90;;;1.00;;
37843;SDS011;63793;57.632;18.292;2023-04-29T07:29:14;3.33;;;1.15;;
37843;SDS011;63793;57.632;18.292;2023-04-29T07:31:41;2.28;;;0.98;;
37843;SDS011;63793;57.632;18.292;2023-04-29T07:34:08;1.48;;;0.65;;
37843;SDS011;63793;57.632;18.292;2023-04-29T07:36:35;2.22;;;0.73;;
37843;SDS011;63793;57.632;18.292;2023-04-29T07:39:02;2.15;;;1.10;;
37843;SDS011;63793;57.632;18.292;2023-04-29T07:41:30;1.85;;;1.35;;
37843;SDS011;63793;57.632;18.292;2023-04-29T07:43:57;2.70;;;1.15;;
37843;SDS011;63793;57.632;18.292;2023-04-29T07:46:24;4.10;;;1.25;;
37843;SDS011;63793;57.632;18.292;2023-04-29T07:48:51;3.47;;;0.95;;
37843;SDS011;63793;57.632;18.292;2023-04-29T07:51:18;2.50;;;0.88;;
37843;SDS011;63793;57.632;18.292;2023-04-29T07:53:45;0.98;;;0.90;;
37843;SDS011;63793;57.632;18.292;2023-04-29T07:56:12;2.95;;;1.02;;
37843;SDS011;63793;57.632;18.292;2023-04-29T07:58:39;2.35;;;0.77;;
37843;SDS011;63793;57.632;18.292;2023-04-29T08:01:09;2.97;;;1.13;;
37843;SDS011;63793;57.632;18.292;2023-04-29T08:03:38;2.30;;;1.08;;
37843;SDS011;63793;57.632;18.292;2023-04-29T08:06:07;2.03;;;1.07;;
37843;SDS011;63793;57.632;18.292;2023-04-29T08:08:35;2.17;;;1.00;;
37843;SDS011;63793;57.632;18.292;2023-04-29T08:11:02;4.13;;;1.08;;
37843;SDS011;63793;57.632;18.292;2023-04-29T08:13:29;3.75;;;1.05;;
37843;SDS011;63793;57.632;18.292;2023-04-29T08:15:56;4.22;;;1.48;;
37843;SDS011;63793;57.632;18.292;2023-04-29T08:18:23;3.03;;;1.60;;
37843;SDS011;63793;57.632;18.292;2023-04-29T08:20:49;2.90;;;1.20;;
37843;SDS011;63793;57.632;18.292;2023-04-29T08:23:16;3.95;;;1.55;;
37843;SDS011;63793;57.632;18.292;2023-04-29T08:25:44;2.38;;;1.50;;
37843;SDS011;63793;57.632;18.292;2023-04-29T08:28:11;4.03;;;1.83;;
37843;SDS011;63793;57.632;18.292;2023-04-29T08:30:39;3.75;;;1.30;;
37843;SDS011;63793;57.632;18.292;2023-04-29T08:33:07;4.50;;;1.48;;
37843;SDS011;63793;57.632;18.292;2023-04-29T08:35:34;5.03;;;1.55;;
37843;SDS011;63793;57.632;18.292;2023-04-29T08:38:04;1.65;;;1.13;;
37843;SDS011;63793;57.632;18.292;2023-04-29T08:40:50;4.10;;;1.42;;
37843;SDS011;63793;57.632;18.292;2023-04-29T08:43:17;4.35;;;1.60;;
37843;SDS011;63793;57.632;18.292;2023-04-29T08:45:45;4.28;;;1.55;;
37843;SDS011;63793;57.632;18.292;2023-04-29T08:48:14;2.45;;;1.83;;
37843;SDS011;63793;57.632;18.292;2023-04-29T08:50:45;2.25;;;1.30;;
37843;SDS011;63793;57.632;18.292;2023-04-29T08:53:12;3.67;;;1.60;;
37843;SDS011;63793;57.632;18.292;2023-04-29T08:55:46;5.90;;;1.92;;
37843;SDS011;63793;57.632;18.292;2023-04-29T08:58:14;3.10;;;1.50;;
37843;SDS011;63793;57.632;18.292;2023-04-29T09:00:42;8.38;;;2.78;;
37843;SDS011;63793;57.632;18.292;2023-04-29T09:05:43;3.47;;;1.83;;
37843;SDS011;63793;57.632;18.292;2023-04-29T09:08:14;5.00;;;1.52;;
37843;SDS011;63793;57.632;18.292;2023-04-29T09:10:42;2.53;;;2.08;;
37843;SDS011;63793;57.632;18.292;2023-04-29T09:13:13;2.92;;;2.10;;
37843;SDS011;63793;57.632;18.292;2023-04-29T09:15:52;4.53;;;2.30;;
37843;SDS011;63793;57.632;18.292;2023-04-29T09:21:16;2.88;;;2.20;;
37843;SDS011;63793;57.632;18.292;2023-04-29T09:23:55;4.00;;;2.03;;
37843;SDS011;63793;57.632;18.292;2023-04-29T09:26:23;4.03;;;2.47;;
37843;SDS011;63793;57.632;18.292;2023-04-29T09:29:12;2.85;;;1.92;;
37843;SDS011;63793;57.632;18.292;2023-04-29T09:31:41;3.75;;;2.33;;
37843;SDS011;63793;57.632;18.292;2023-04-29T09:34:08;2.95;;;2.35;;
37843;SDS011;63793;57.632;18.292;2023-04-29T09:36:40;2.72;;;1.80;;
37843;SDS011;63793;57.632;18.292;2023-04-29T09:39:12;3.92;;;1.80;;
37843;SDS011;63793;57.632;18.292;2023-04-29T09:44:21;2.70;;;1.52;;
37843;SDS011;63793;57.632;18.292;2023-04-29T09:46:58;4.82;;;2.47;;
37843;SDS011;63793;57.632;18.292;2023-04-29T09:49:30;5.88;;;2.72;;
37843;SDS011;63793;57.632;18.292;2023-04-29T09:52:15;4.03;;;2.08;;
37843;SDS011;63793;57.632;18.292;2023-04-29T09:54:44;4.47;;;2.08;;
37843;SDS011;63793;57.632;18.292;2023-04-29T09:57:11;5.30;;;2.75;;
37843;SDS011;63793;57.632;18.292;2023-04-29T10:02:12;3.83;;;3.30;;
37843;SDS011;63793;57.632;18.292;2023-04-29T10:04:47;4.20;;;3.72;;
37843;SDS011;63793;57.632;18.292;2023-04-29T10:07:20;3.03;;;2.42;;
37843;SDS011;63793;57.632;18.292;2023-04-29T10:09:47;2.10;;;1.88;;
37843;SDS011;63793;57.632;18.292;2023-04-29T10:12:17;6.93;;;2.25;;
37843;SDS011;63793;57.632;18.292;2023-04-29T10:17:32;7.07;;;3.38;;
37843;SDS011;63793;57.632;18.292;2023-04-29T10:20:07;4.35;;;2.47;;
37843;SDS011;63793;57.632;18.292;2023-04-29T10:22:41;4.43;;;2.15;;
37843;SDS011;63793;57.632;18.292;2023-04-29T10:25:15;6.68;;;2.83;;
37843;SDS011;63793;57.632;18.292;2023-04-29T10:27:44;3.90;;;2.53;;
37843;SDS011;63793;57.632;18.292;2023-04-29T10:30:15;4.15;;;2.50;;
37843;SDS011;63793;57.632;18.292;2023-04-29T10:32:44;4.05;;;2.08;;
37843;SDS011;63793;57.632;18.292;2023-04-29T10:35:18;8.40;;;2.67;;
37843;SDS011;63793;57.632;18.292;2023-04-29T10:37:47;3.35;;;2.58;;
37843;SDS011;63793;57.632;18.292;2023-04-29T10:40:21;3.17;;;2.08;;
37843;SDS011;63793;57.632;18.292;2023-04-29T10:42:53;7.40;;;2.38;;
37843;SDS011;63793;57.632;18.292;2023-04-29T10:50:31;3.95;;;2.10;;
37843;SDS011;63793;57.632;18.292;2023-04-29T10:53:02;5.50;;;2.30;;
37843;SDS011;63793;57.632;18.292;2023-04-29T10:55:30;5.78;;;2.65;;
37843;SDS011;63793;57.632;18.292;2023-04-29T11:00:29;4.05;;;2.80;;
37843;SDS011;63793;57.632;18.292;2023-04-29T11:03:00;3.30;;;2.03;;
37843;SDS011;63793;57.632;18.292;2023-04-29T11:05:34;3.50;;;2.60;;
37843;SDS011;63793;57.632;18.292;2023-04-29T11:10:41;3.05;;;2.13;;
37843;SDS011;63793;57.632;18.292;2023-04-29T11:15:52;3.85;;;2.40;;
37843;SDS011;63793;57.632;18.292;2023-04-29T11:18:29;3.97;;;2.78;;
37843;SDS011;63793;57.632;18.292;2023-04-29T11:23:34;4.47;;;2.78;;
37843;SDS011;63793;57.632;18.292;2023-04-29T11:26:01;5.50;;;3.10;;
37843;SDS011;63793;57.632;18.292;2023-04-29T11:28:30;5.32;;;3.20;;
37843;SDS011;63793;57.632;18.292;2023-04-29T11:30:57;5.88;;;3.05;;
37843;SDS011;63793;57.632;18.292;2023-04-29T11:33:25;4.78;;;2.78;;
37843;SDS011;63793;57.632;18.292;2023-04-29T11:35:53;6.43;;;3.60;;
37843;SDS011;63793;57.632;18.292;2023-04-29T11:38:24;6.38;;;4.07;;
37843;SDS011;63793;57.632;18.292;2023-04-29T11:40:51;7.53;;;4.57;;
37843;SDS011;63793;57.632;18.292;2023-04-29T11:43:21;10.65;;;4.22;;
37843;SDS011;63793;57.632;18.292;2023-04-29T11:45:49;7.18;;;4.05;;
37843;SDS011;63793;57.632;18.292;2023-04-29T11:48:20;6.75;;;3.63;;
37843;SDS011;63793;57.632;18.292;2023-04-29T11:50:49;5.03;;;3.88;;
37843;SDS011;63793;57.632;18.292;2023-04-29T11:53:20;8.73;;;5.20;;
37843;SDS011;63793;57.632;18.292;2023-04-29T11:55:53;5.18;;;3.80;;
37843;SDS011;63793;57.632;18.292;2023-04-29T11:58:21;5.00;;;4.35;;
37843;SDS011;63793;57.632;18.292;2023-04-29T12:00:49;7.88;;;4.72;;
37843;SDS011;63793;57.632;18.292;2023-04-29T12:03:17;12.43;;;6.40;;
37843;SDS011;63793;57.632;18.292;2023-04-29T12:08:14;11.88;;;4.75;;
37843;SDS011;63793;57.632;18.292;2023-04-29T12:10:40;12.15;;;5.82;;
37843;SDS011;63793;57.632;18.292;2023-04-29T12:13:07;11.90;;;5.35;;
37843;SDS011;63793;57.632;18.292;2023-04-29T12:15:35;15.00;;;7.38;;
37843;SDS011;63793;57.632;18.292;2023-04-29T12:18:05;9.30;;;5.82;;
37843;SDS011;63793;57.632;18.292;2023-04-29T12:20:33;9.55;;;5.60;;
37843;SDS011;63793;57.632;18.292;2023-04-29T12:23:19;10.32;;;5.53;;
37843;SDS011;63793;57.632;18.292;2023-04-29T12:25:48;8.25;;;5.75;;
37843;SDS011;63793;57.632;18.292;2023-04-29T12:28:20;6.40;;;5.68;;
37843;SDS011;63793;57.632;18.292;2023-04-29T12:30:47;8.00;;;5.22;;
37843;SDS011;63793;57.632;18.292;2023-04-29T12:33:25;6.20;;;5.57;;
37843;SDS011;63793;57.632;18.292;2023-04-29T12:35:54;5.55;;;4.90;;
37843;SDS011;63793;57.632;18.292;2023-04-29T12:38:26;6.70;;;6.10;;
37843;SDS011;63793;57.632;18.292;2023-04-29T12:40:59;6.95;;;5.57;;
37843;SDS011;63793;57.632;18.292;2023-04-29T12:43:31;9.85;;;5.95;;
37843;SDS011;63793;57.632;18.292;2023-04-29T12:46:01;8.45;;;5.75;;
37843;SDS011;63793;57.632;18.292;2023-04-29T12:48:34;6.47;;;5.18;;
37843;SDS011;63793;57.632;18.292;2023-04-29T12:51:07;8.10;;;5.68;;
37843;SDS011;63793;57.632;18.292;2023-04-29T12:53:35;6.82;;;5.47;;
37843;SDS011;63793;57.632;18.292;2023-04-29T12:56:03;7.43;;;5.07;;
37843;SDS011;63793;57.632;18.292;2023-04-29T12:58:31;7.25;;;5.13;;
37843;SDS011;63793;57.632;18.292;2023-04-29T13:01:00;7.50;;;5.80;;
37843;SDS011;63793;57.632;18.292;2023-04-29T13:03:27;7.93;;;7.13;;
37843;SDS011;63793;57.632;18.292;2023-04-29T13:05:54;8.45;;;6.80;;
37843;SDS011;63793;57.632;18.292;2023-04-29T13:08:21;9.50;;;7.07;;
37843;SDS011;63793;57.632;18.292;2023-04-29T13:10:48;14.40;;;7.03;;
37843;SDS011;63793;57.632;18.292;2023-04-29T13:13:15;15.27;;;7.70;;
37843;SDS011;63793;57.632;18.292;2023-04-29T13:15:42;7.75;;;5.90;;
37843;SDS011;63793;57.632;18.292;2023-04-29T13:18:09;9.38;;;5.75;;
37843;SDS011;63793;57.632;18.292;2023-04-29T13:20:36;9.73;;;7.75;;
37843;SDS011;63793;57.632;18.292;2023-04-29T13:23:07;9.55;;;6.05;;
37843;SDS011;63793;57.632;18.292;2023-04-29T13:25:34;7.30;;;6.45;;
37843;SDS011;63793;57.632;18.292;2023-04-29T13:28:01;9.27;;;6.07;;
37843;SDS011;63793;57.632;18.292;2023-04-29T13:30:30;13.80;;;9.45;;
37843;SDS011;63793;57.632;18.292;2023-04-29T13:32:57;15.93;;;7.97;;
37843;SDS011;63793;57.632;18.292;2023-04-29T13:35:36;9.88;;;7.57;;
37843;SDS011;63793;57.632;18.292;2023-04-29T13:38:05;12.73;;;8.93;;
37843;SDS011;63793;57.632;18.292;2023-04-29T13:40:32;12.00;;;7.13;;
37843;SDS011;63793;57.632;18.292;2023-04-29T13:43:07;11.05;;;8.48;;
37843;SDS011;63793;57.632;18.292;2023-04-29T13:45:35;14.90;;;9.02;;
37843;SDS011;63793;57.632;18.292;2023-04-29T13:48:09;14.80;;;9.63;;
37843;SDS011;63793;57.632;18.292;2023-04-29T13:50:51;9.85;;;7.07;;
37843;SDS011;63793;57.632;18.292;2023-04-29T13:53:20;11.00;;;8.52;;
37843;SDS011;63793;57.632;18.292;2023-04-29T13:55:50;12.65;;;9.40;;
37843;SDS011;63793;57.632;18.292;2023-04-29T13:58:37;11.60;;;8.25;;
37843;SDS011;63793;57.632;18.292;2023-04-29T14:01:25;13.80;;;8.10;;
37843;SDS011;63793;57.632;18.292;2023-04-29T14:04:13;11.43;;;8.82;;
37843;SDS011;63793;57.632;18.292;2023-04-29T14:06:41;13.35;;;9.40;;
37843;SDS011;63793;57.632;18.292;2023-04-29T14:09:09;11.57;;;8.73;;
37843;SDS011;63793;57.632;18.292;2023-04-29T14:11:35;9.13;;;8.20;;
37843;SDS011;63793;57.632;18.292;2023-04-29T14:14:02;9.88;;;8.93;;
37843;SDS011;63793;57.632;18.292;2023-04-29T14:16:29;15.45;;;9.23;;
37843;SDS011;63793;57.632;18.292;2023-04-29T14:18:57;14.75;;;8.75;;
37843;SDS011;63793;57.632;18.292;2023-04-29T14:23:55;12.43;;;8.65;;
37843;SDS011;63793;57.632;18.292;2023-04-29T14:26:22;10.57;;;9.10;;
37843;SDS011;63793;57.632;18.292;2023-04-29T14:28:54;12.15;;;8.75;;
37843;SDS011;63793;57.632;18.292;2023-04-29T14:31:25;12.13;;;9.52;;
37843;SDS011;63793;57.632;18.292;2023-04-29T14:33:54;15.45;;;8.50;;
37843;SDS011;63793;57.632;18.292;2023-04-29T14:36:22;13.23;;;8.63;;
37843;SDS011;63793;57.632;18.292;2023-04-29T14:38:50;11.07;;;8.13;;
37843;SDS011;63793;57.632;18.292;2023-04-29T14:41:17;10.32;;;9.25;;
37843;SDS011;63793;57.632;18.292;2023-04-29T14:43:46;11.10;;;9.20;;
37843;SDS011;63793;57.632;18.292;2023-04-29T14:46:13;12.38;;;8.43;;
37843;SDS011;63793;57.632;18.292;2023-04-29T14:48:40;8.73;;;7.78;;
37843;SDS011;63793;57.632;18.292;2023-04-29T14:51:07;11.45;;;8.32;;
37843;SDS011;63793;57.632;18.292;2023-04-29T14:53:34;10.23;;;8.15;;
37843;SDS011;63793;57.632;18.292;2023-04-29T14:56:01;10.57;;;8.05;;
37843;SDS011;63793;57.632;18.292;2023-04-29T14:58:29;10.43;;;8.88;;
37843;SDS011;63793;57.632;18.292;2023-04-29T15:00:56;11.15;;;7.28;;
37843;SDS011;63793;57.632;18.292;2023-04-29T15:03:22;10.68;;;8.35;;
37843;SDS011;63793;57.632;18.292;2023-04-29T15:05:50;10.65;;;8.10;;
37843;SDS011;63793;57.632;18.292;2023-04-29T15:08:17;10.32;;;8.02;;
37843;SDS011;63793;57.632;18.292;2023-04-29T15:10:44;10.35;;;7.90;;
37843;SDS011;63793;57.632;18.292;2023-04-29T15:13:13;10.05;;;8.50;;
37843;SDS011;63793;57.632;18.292;2023-04-29T15:15:40;10.88;;;8.18;;
37843;SDS011;63793;57.632;18.292;2023-04-29T15:18:07;13.10;;;7.53;;
37843;SDS011;63793;57.632;18.292;2023-04-29T15:20:34;11.32;;;8.50;;
37843;SDS011;63793;57.632;18.292;2023-04-29T15:23:02;9.07;;;7.95;;
37843;SDS011;63793;57.632;18.292;2023-04-29T15:25:31;13.55;;;8.27;;
37843;SDS011;63793;57.632;18.292;2023-04-29T15:28:00;8.68;;;7.80;;
37843;SDS011;63793;57.632;18.292;2023-04-29T15:30:29;13.40;;;9.10;;
37843;SDS011;63793;57.632;18.292;2023-04-29T15:32:56;13.48;;;9.55;;
37843;SDS011;63793;57.632;18.292;2023-04-29T15:35:23;10.68;;;8.95;;